Time;durP1;ratioP1;P1;durP2;ratioP2;P2;SDS_P1;SDS_P2;PMS_P1;PMS_P2;Temp;Humidity;BMP_temperature;BMP_pressure;BME280_temperature;BME280_humidity;BME280_pressure;Samples;Min_cycle;Max_cycle;Signal;HPM_P1;HPM_P2
2022/06/18 00:01:37;;;;;;;12.38;4.25;;;;;;;;;;6203721;23;20004;-81
2022/06/18 00:04:21;;;;;;;10.05;4.25;;;;;;;;;;6222552;23;20000;-81
2022/06/18 00:07:07;;;;;;;9.48;4.43;;;;;;;;;;6192356;23;20008;-80
2022/06/18 00:09:37;;;;;;;7.18;4.43;;;;;;;;;;6221296;23;20007;-83
2022/06/18 00:15:13;;;;;;;8.07;5.00;;;;;;;;;;6238117;23;20333;-81
2022/06/18 00:17:39;;;;;;;11.52;5.10;;;;;;;;;;6227521;23;20411;-81
2022/06/18 00:20:05;;;;;;;5.07;4.43;;;;;;;;;;6248609;23;20004;-81
2022/06/18 00:22:30;;;;;;;9.05;5.32;;;;;;;;;;6260569;23;19996;-81
2022/06/18 00:24:55;;;;;;;11.40;4.85;;;;;;;;;;6193162;23;20004;-81
2022/06/18 00:27:21;;;;;;;15.35;6.15;;;;;;;;;;6193112;23;20011;-82
2022/06/18 00:29:48;;;;;;;11.07;5.53;;;;;;;;;;6244397;23;20066;-82
2022/06/18 00:32:13;;;;;;;10.23;5.60;;;;;;;;;;6217310;23;20007;-82
2022/06/18 00:34:39;;;;;;;10.55;5.78;;;;;;;;;;6217353;23;20431;-81
2022/06/18 00:37:05;;;;;;;9.57;5.88;;;;;;;;;;6244766;23;20007;-81
2022/06/18 00:39:32;;;;;;;13.43;5.63;;;;;;;;;;6193068;23;20024;-82
2022/06/18 00:41:59;;;;;;;11.25;5.90;;;;;;;;;;6252195;23;19988;-81
2022/06/18 00:44:30;;;;;;;10.38;6.00;;;;;;;;;;6193869;23;20011;-82
2022/06/18 00:47:29;;;;;;;11.98;6.38;;;;;;;;;;6196644;23;20040;-82
2022/06/18 00:50:04;;;;;;;14.63;6.78;;;;;;;;;;6244332;23;20012;-82
2022/06/18 00:52:54;;;;;;;10.13;6.15;;;;;;;;;;6218099;23;20008;-81
2022/06/18 00:55:27;;;;;;;12.50;6.30;;;;;;;;;;6197043;23;20083;-82
2022/06/18 00:58:15;;;;;;;14.25;6.35;;;;;;;;;;6220145;23;20063;-81
2022/06/18 01:00:42;;;;;;;9.90;6.03;;;;;;;;;;6221579;23;20062;-82
2022/06/18 01:03:34;;;;;;;11.82;5.95;;;;;;;;;;6260132;23;20000;-81
2022/06/18 01:06:02;;;;;;;12.55;5.95;;;;;;;;;;6247972;23;20008;-81
2022/06/18 01:08:28;;;;;;;14.35;5.95;;;;;;;;;;6197911;23;20035;-82
2022/06/18 01:10:58;;;;;;;10.93;6.13;;;;;;;;;;6219353;23;20090;-82
2022/06/18 01:13:27;;;;;;;11.07;6.05;;;;;;;;;;6220760;23;20046;-82
2022/06/18 01:15:53;;;;;;;9.00;5.77;;;;;;;;;;6219758;23;20083;-82
2022/06/18 01:18:18;;;;;;;12.43;5.90;;;;;;;;;;6194390;23;20004;-82
2022/06/18 01:20:49;;;;;;;11.23;6.28;;;;;;;;;;6219217;23;19997;-81
2022/06/18 01:23:19;;;;;;;8.23;5.15;;;;;;;;;;6207478;23;20031;-82
2022/06/18 01:25:47;;;;;;;;;;;;;;;;;;6251556;23;20012;-80
2022/06/18 01:28:16;;;;;;;7.88;5.78;;;;;;;;;;6251168;23;19912;-82
2022/06/18 01:30:42;;;;;;;7.43;5.32;;;;;;;;;;6219726;23;20000;-82
2022/06/18 01:33:08;;;;;;;16.48;5.63;;;;;;;;;;6219508;23;19997;-81
2022/06/18 01:35:35;;;;;;;10.38;5.47;;;;;;;;;;6219443;23;20024;-81
2022/06/18 01:38:01;;;;;;;12.00;5.32;;;;;;;;;;6219156;23;20000;-82
2022/06/18 01:40:33;;;;;;;11.15;5.53;;;;;;;;;;6219400;23;20004;-82
2022/06/18 01:42:58;;;;;;;10.63;5.70;;;;;;;;;;6206965;23;20277;-82
2022/06/18 01:45:26;;;;;;;7.90;5.38;;;;;;;;;;6199049;23;20089;-82
2022/06/18 01:48:02;;;;;;;9.32;5.68;;;;;;;;;;6196526;23;20000;-82
2022/06/18 01:50:40;;;;;;;10.02;5.97;;;;;;;;;;6220756;23;20036;-82
2022/06/18 01:53:15;;;;;;;6.25;5.13;;;;;;;;;;6194645;23;20404;-82
2022/06/18 01:55:56;;;;;;;8.25;5.65;;;;;;;;;;6194012;23;20000;-82
2022/06/18 01:58:26;;;;;;;8.57;5.28;;;;;;;;;;6221285;23;20004;-82
2022/06/18 02:00:53;;;;;;;9.77;5.68;;;;;;;;;;6194775;23;20003;-82
2022/06/18 02:03:20;;;;;;;14.35;5.65;;;;;;;;;;6179184;23;20040;-82
2022/06/18 02:05:45;;;;;;;7.68;5.65;;;;;;;;;;6251951;23;20008;-81
2022/06/18 02:08:11;;;;;;;11.85;5.90;;;;;;;;;;6222218;23;20062;-80
2022/06/18 02:10:43;;;;;;;11.88;5.72;;;;;;;;;;6196057;23;20000;-82
2022/06/18 02:13:09;;;;;;;9.88;5.40;;;;;;;;;;6193814;23;20004;-82
2022/06/18 02:15:37;;;;;;;11.10;5.85;;;;;;;;;;6245348;23;20007;-82
2022/06/18 02:18:06;;;;;;;8.65;6.13;;;;;;;;;;6194125;23;20035;-82
2022/06/18 02:20:35;;;;;;;13.63;6.57;;;;;;;;;;6218878;23;20028;-82
2022/06/18 02:23:00;;;;;;;13.13;6.47;;;;;;;;;;6196566;23;20000;-82
2022/06/18 02:25:27;;;;;;;8.88;5.55;;;;;;;;;;6225401;23;20011;-82
2022/06/18 02:27:58;;;;;;;9.35;5.30;;;;;;;;;;6218713;23;20000;-83
2022/06/18 02:30:24;;;;;;;;;;;;;;;;;;6194352;23;20054;-82
2022/06/18 02:33:04;;;;;;;;;;;;;;;;;;6246225;23;19908;-82
2022/06/18 02:35:32;;;;;;;;;;;;;;;;;;6246182;23;19965;-82
2022/06/18 02:37:57;;;;;;;;;;;;;;;;;;6246042;23;19958;-82
2022/06/18 02:40:26;;;;;;;;;;;;;;;;;;6245520;23;19908;-82
2022/06/18 02:42:52;;;;;;;;;;;;;;;;;;6194110;23;19907;-82
2022/06/18 02:45:17;;;;;;;;;;;;;;;;;;6235776;23;19911;-82
2022/06/18 02:47:43;;;;;;;;;;;;;;;;;;6246558;23;19959;-81
2022/06/18 02:50:11;;;;;;;;;;;;;;;;;;6221238;23;19907;-81
2022/06/18 02:52:40;;;;;;;;;;;;;;;;;;6247826;23;20604;-82
2022/06/18 02:55:16;;;;;;;;;;;;;;;;;;6193329;23;19974;-82
2022/06/18 02:57:41;;;;;;;;;;;;;;;;;;6218705;23;19908;-83
2022/06/18 03:00:08;;;;;;;;;;;;;;;;;;6218743;23;19915;-82
2022/06/18 03:02:34;;;;;;;;;;;;;;;;;;6245348;23;20291;-82
2022/06/18 03:04:59;;;;;;;;;;;;;;;;;;6260435;22;19907;-82
2022/06/18 03:07:24;;;;;;;;;;;;;;;;;;6251119;23;19915;-82
2022/06/18 03:12:34;;;;;;;;;;;;;;;;;;6250738;23;19914;-82
2022/06/18 03:14:59;;;;;;;;;;;;;;;;;;6245519;23;20280;-82
2022/06/18 03:17:25;;;;;;;;;;;;;;;;;;6218488;23;19918;-82
2022/06/18 03:19:52;;;;;;;;;;;;;;;;;;6245106;23;19937;-83
2022/06/18 03:22:19;;;;;;;;;;;;;;;;;;6193106;23;20293;-82
2022/06/18 03:24:44;;;;;;;;;;;;;;;;;;6223559;23;19907;-82
2022/06/18 03:27:10;;;;;;;;;;;;;;;;;;6257673;23;19912;-82
2022/06/18 03:29:35;;;;;;;;;;;;;;;;;;6218650;23;20258;-82
2022/06/18 03:32:01;;;;;;;;;;;;;;;;;;6245277;23;19907;-83
2022/06/18 03:34:26;;;;;;;;;;;;;;;;;;6220734;23;19941;-82
2022/06/18 03:36:52;;;;;;;;;;;;;;;;;;6218537;23;19908;-82
2022/06/18 03:39:17;;;;;;;;;;;;;;;;;;6244734;23;19915;-82
2022/06/18 03:41:42;;;;;;;;;;;;;;;;;;6245059;23;19907;-80
2022/06/18 03:44:08;;;;;;;;;;;;;;;;;;6245252;23;19934;-81
2022/06/18 03:46:35;;;;;;;;;;;;;;;;;;6256051;23;19907;-82
2022/06/18 03:49:01;;;;;;;;;;;;;;;;;;6246546;23;19915;-81
2022/06/18 03:51:26;;;;;;;;;;;;;;;;;;6245319;23;19908;-82
2022/06/18 03:53:52;;;;;;;;;;;;;;;;;;6218133;23;20002;-82
2022/06/18 03:56:23;;;;;;;;;;;;;;;;;;6219194;23;19908;-82
2022/06/18 03:58:48;;;;;;;;;;;;;;;;;;6218481;23;19973;-81
2022/06/18 04:01:15;;;;;;;;;;;;;;;;;;6245271;23;20336;-81
2022/06/18 04:03:40;;;;;;;;;;;;;;;;;;6245290;23;20326;-81
2022/06/18 04:06:07;;;;;;;;;;;;;;;;;;6251625;23;19908;-82
2022/06/18 04:08:32;;;;;;;;;;;;;;;;;;6251721;22;20353;-81
2022/06/18 04:10:58;;;;;;;;;;;;;;;;;;6245053;23;19907;-82
2022/06/18 04:13:23;;;;;;;;;;;;;;;;;;6244627;23;19908;-83
2022/06/18 04:15:49;;;;;;;;;;;;;;;;;;6219364;23;20302;-82
2022/06/18 04:18:15;;;;;;;;;;;;;;;;;;6244729;23;19966;-81
2022/06/18 04:20:40;;;;;;;;;;;;;;;;;;6218136;23;19983;-81
2022/06/18 04:23:05;;;;;;;;;;;;;;;;;;6244979;23;19908;-81
2022/06/18 04:25:31;;;;;;;;;;;;;;;;;;6244456;23;19978;-82
2022/06/18 04:27:57;;;;;;;;;;;;;;;;;;6257012;23;19960;-81
2022/06/18 04:30:23;;;;;;;;;;;;;;;;;;6244058;23;19903;-82
2022/06/18 04:32:48;;;;;;;;;;;;;;;;;;6244811;23;19918;-82
2022/06/18 04:35:13;;;;;;;;;;;;;;;;;;6251028;23;19908;-81
2022/06/18 04:37:39;;;;;;;;;;;;;;;;;;6244588;23;20247;-82
2022/06/18 04:40:05;;;;;;;;;;;;;;;;;;6192425;23;19957;-81
2022/06/18 04:42:30;;;;;;;;;;;;;;;;;;6218288;23;20315;-80
2022/06/18 04:44:55;;;;;;;;;;;;;;;;;;6217573;23;19907;-81
2022/06/18 04:47:21;;;;;;;;;;;;;;;;;;6223841;23;20347;-81
2022/06/18 04:49:46;;;;;;;;;;;;;;;;;;6219606;23;20307;-82
2022/06/18 04:52:11;;;;;;;;;;;;;;;;;;6246057;23;20315;-81
2022/06/18 04:54:37;;;;;;;;;;;;;;;;;;6245847;23;19907;-80
2022/06/18 04:57:02;;;;;;;;;;;;;;;;;;6218104;23;19903;-82
2022/06/18 04:59:28;;;;;;;;;;;;;;;;;;6218078;23;19911;-81
2022/06/18 05:02:19;;;;;;;;;;;;;;;;;;6244760;23;19908;-81
2022/06/18 05:04:45;;;;;;;;;;;;;;;;;;6239557;23;19907;-81
2022/06/18 05:07:10;;;;;;;;;;;;;;;;;;6245227;23;20327;-80
2022/06/18 05:09:35;;;;;;;;;;;;;;;;;;6253882;22;19912;-83
2022/06/18 05:12:01;;;;;;;;;;;;;;;;;;6244739;23;19907;-80
2022/06/18 05:14:26;;;;;;;;;;;;;;;;;;6244798;23;20013;-82
2022/06/18 05:16:53;;;;;;;;;;;;;;;;;;6244996;23;19987;-81
2022/06/18 05:19:21;;;;;;;;;;;;;;;;;;6244214;23;19907;-80
2022/06/18 05:21:46;;;;;;;;;;;;;;;;;;6193056;23;19908;-80
2022/06/18 05:24:11;;;;;;;;;;;;;;;;;;6245383;23;20230;-81
2022/06/18 05:26:43;;;;;;;;;;;;;;;;;;6245128;23;19929;-82
2022/06/18 05:29:10;;;;;;;;;;;;;;;;;;6266746;23;19915;-83
2022/06/18 05:31:36;;;;;;;;;;;;;;;;;;6253571;23;19918;-83
2022/06/18 05:34:01;;;;;;;;;;;;;;;;;;6244866;23;20251;-82
2022/06/18 05:36:27;;;;;;;;;;;;;;;;;;6248128;23;19908;-81
2022/06/18 05:38:53;;;;;;;;;;;;;;;;;;6246509;23;19916;-82
2022/06/18 05:41:18;;;;;;;;;;;;;;;;;;6244087;23;20335;-82
2022/06/18 05:43:43;;;;;;;;;;;;;;;;;;6246801;23;19908;-82
2022/06/18 05:46:10;;;;;;;;;;;;;;;;;;6247341;23;19907;-81
2022/06/18 05:48:36;;;;;;;;;;;;;;;;;;6230606;23;19934;-82
2022/06/18 05:51:02;;;;;;;;;;;;;;;;;;6252035;23;19908;-82
2022/06/18 05:53:27;;;;;;;;;;;;;;;;;;6220651;23;19908;-81
2022/06/18 05:55:52;;;;;;;;;;;;;;;;;;6247329;23;20053;-83
2022/06/18 05:58:17;;;;;;;;;;;;;;;;;;6246411;23;20345;-80
2022/06/18 06:00:43;;;;;;;;;;;;;;;;;;6248551;23;20324;-81
2022/06/18 06:03:08;;;;;;;;;;;;;;;;;;6246658;23;19915;-81
2022/06/18 06:05:33;;;;;;;;;;;;;;;;;;6246391;23;19914;-80
2022/06/18 06:07:59;;;;;;;;;;;;;;;;;;6246749;23;19908;-82
2022/06/18 06:13:09;;;;;;;;;;;;;;;;;;6246657;23;19957;-81
2022/06/18 06:15:35;;;;;;;;;;;;;;;;;;6219536;23;20238;-81
2022/06/18 06:18:00;;;;;;;;;;;;;;;;;;6221334;23;20489;-81
2022/06/18 06:20:27;;;;;;;;;;;;;;;;;;6220699;23;19912;-82
2022/06/18 06:22:53;;;;;;;;;;;;;;;;;;6246209;23;20300;-81
2022/06/18 06:25:18;;;;;;;;;;;;;;;;;;6224284;23;19907;-81
2022/06/18 06:27:43;;;;;;;;;;;;;;;;;;6195236;23;20236;-81
2022/06/18 06:30:12;;;;;;;;;;;;;;;;;;6234622;23;19911;-81
2022/06/18 06:32:37;;;;;;;;;;;;;;;;;;6222023;23;20297;-82
2022/06/18 06:35:02;;;;;;;;;;;;;;;;;;6246974;23;19908;-84
2022/06/18 06:37:28;;;;;;;;;;;;;;;;;;6247059;23;20360;-82
2022/06/18 06:39:53;;;;;;;;;;;;;;;;;;6246138;23;20362;-82
2022/06/18 06:42:21;;;;;;;;;;;;;;;;;;6219803;23;19908;-84
2022/06/18 06:44:47;;;;;;;;;;;;;;;;;;6246962;23;19908;-82
2022/06/18 06:47:12;;;;;;;;;;;;;;;;;;6246312;23;19964;-80
2022/06/18 06:49:37;;;;;;;;;;;;;;;;;;6204279;23;19911;-83
2022/06/18 06:52:03;;;;;;;;;;;;;;;;;;6255929;22;19912;-82
2022/06/18 06:54:28;;;;;;;;;;;;;;;;;;6193383;23;19907;-81
2022/06/18 06:59:37;;;;;;;;;;;;;;;;;;6245485;23;19915;-80
2022/06/18 07:02:05;;;;;;;;;;;;;;;;;;6247367;23;20231;-83
2022/06/18 07:04:31;;;;;;;;;;;;;;;;;;6191674;23;19931;-80
2022/06/18 07:06:57;;;;;;;;;;;;;;;;;;6245841;23;19908;-82
2022/06/18 07:09:23;;;;;;;;;;;;;;;;;;6219077;23;20316;-80
2022/06/18 07:11:48;;;;;;;;;;;;;;;;;;6254612;23;19911;-81
2022/06/18 07:14:13;;;;;;;;;;;;;;;;;;6244830;23;20194;-83
2022/06/18 07:16:48;;;;;;;;;;;;;;;;;;6243344;23;20302;-81
2022/06/18 07:19:14;;;;;;;;;;;;;;;;;;6244576;23;20068;-81
2022/06/18 07:21:39;;;;;;;;;;;;;;;;;;6243988;23;20307;-76
2022/06/18 07:24:04;;;;;;;;;;;;;;;;;;6244076;23;19908;-75
2022/06/18 07:26:30;;;;;;;;;;;;;;;;;;6217176;23;19972;-75
2022/06/18 07:28:55;;;;;;;;;;;;;;;;;;6218366;23;20169;-74
2022/06/18 07:31:23;;;;;;;;;;;;;;;;;;6224943;23;19974;-76
2022/06/18 07:33:48;;;;;;;;;;;;;;;;;;6219613;23;19914;-76
2022/06/18 07:36:13;;;;;;;;;;;;;;;;;;6245653;23;19907;-76
2022/06/18 07:38:39;;;;;;;;;;;;;;;;;;6245408;23;19912;-75
2022/06/18 07:41:04;;;;;;;;;;;;;;;;;;6245382;23;19965;-75
2022/06/18 07:43:39;;;;;;;;;;;;;;;;;;6219065;23;20582;-75
2022/06/18 07:46:05;;;;;;;;;;;;;;;;;;6218372;23;19990;-75
2022/06/18 07:48:30;;;;;;;;;;;;;;;;;;6218707;23;19908;-74
2022/06/18 07:50:56;;;;;;;;;;;;;;;;;;6219903;23;19907;-75
2022/06/18 07:53:21;;;;;;;;;;;;;;;;;;6249764;23;19917;-75
2022/06/18 07:55:47;;;;;;;;;;;;;;;;;;6245526;23;19911;-81
2022/06/18 07:58:13;;;;;;;;;;;;;;;;;;6218093;23;19911;-79
2022/06/18 08:00:39;;;;;;;;;;;;;;;;;;6245058;23;19908;-81
2022/06/18 08:03:08;;;;;;;;;;;;;;;;;;6218638;23;19908;-84
2022/06/18 08:05:34;;;;;;;;;;;;;;;;;;6245174;23;20285;-78
2022/06/18 08:07:59;;;;;;;;;;;;;;;;;;6245446;23;19907;-79
2022/06/18 08:10:24;;;;;;;;;;;;;;;;;;6245415;23;19908;-82
2022/06/18 08:12:50;;;;;;;;;;;;;;;;;;6225235;23;19927;-80
2022/06/18 08:15:15;;;;;;;;;;;;;;;;;;6245980;23;20307;-82
2022/06/18 08:17:40;;;;;;;;;;;;;;;;;;6245326;23;19915;-85
2022/06/18 08:20:06;;;;;;;;;;;;;;;;;;6245855;23;20319;-82
2022/06/18 08:22:32;;;;;;;;;;;;;;;;;;6216160;23;19907;-83
2022/06/18 08:24:57;;;;;;;;;;;;;;;;;;6245201;23;19936;-82
2022/06/18 08:27:22;;;;;;;;;;;;;;;;;;6218049;23;19908;-80
2022/06/18 08:29:48;;;;;;;;;;;;;;;;;;6244946;23;19915;-81
2022/06/18 08:32:13;;;;;;;;;;;;;;;;;;6249197;22;19907;-80
2022/06/18 08:34:39;;;;;;;;;;;;;;;;;;6254869;22;19912;-81
2022/06/18 08:37:04;;;;;;;;;;;;;;;;;;6246632;23;19958;-82
2022/06/18 08:39:30;;;;;;;;;;;;;;;;;;6218020;23;20355;-81
2022/06/18 08:42:03;;;;;;;;;;;;;;;;;;6218235;23;19908;-82
2022/06/18 08:44:35;;;;;;;;;;;;;;;;;;6218807;23;19943;-81
2022/06/18 08:47:00;;;;;;;;;;;;;;;;;;6194876;23;19907;-81
2022/06/18 08:49:28;;;;;;;;;;;;;;;;;;6244820;23;19982;-81
2022/06/18 08:52:12;;;;;;;;;;;;;;;;;;6244928;23;19908;-82
2022/06/18 08:54:59;;;;;;;;;;;;;;;;;;6251196;22;19990;-79
2022/06/18 08:57:44;;;;;;;;;;;;;;;;;;6232070;23;19912;-82
2022/06/18 09:00:12;;;;;;;;;;;;;;;;;;6198059;23;19908;-80
2022/06/18 09:02:38;;;;;;;;;;;;;;;;;;6218512;23;19915;-82
2022/06/18 09:05:04;;;;;;;;;;;;;;;;;;6193131;23;19914;-82
2022/06/18 09:07:45;;;;;;;;;;;;;;;;;;6247918;23;19908;-81
2022/06/18 09:10:16;;;;;;;;;;;;;;;;;;6218110;23;19907;-80
2022/06/18 09:12:43;;;;;;;;;;;;;;;;;;6245623;23;19908;-80
2022/06/18 09:15:08;;;;;;;;;;;;;;;;;;6248169;23;19907;-80
2022/06/18 09:17:35;;;;;;;;;;;;;;;;;;6245917;23;19918;-83
2022/06/18 09:20:07;;;;;;;;;;;;;;;;;;6220116;23;19907;-81
2022/06/18 09:22:33;;;;;;;;;;;;;;;;;;6220874;23;20002;-82
2022/06/18 09:25:01;;;;;;;;;;;;;;;;;;6220153;23;19914;-83
2022/06/18 09:27:27;;;;;;;;;;;;;;;;;;6223913;23;19907;-80
2022/06/18 09:29:52;;;;;;;;;;;;;;;;;;6220579;23;19946;-82
2022/06/18 09:32:20;;;;;;;;;;;;;;;;;;6252138;23;19896;-83
2022/06/18 09:34:48;;;;;;;;;;;;;;;;;;6226957;23;20968;-82
2022/06/18 09:37:20;;;;;;;;;;;;;;;;;;6247056;23;19930;-82
2022/06/18 09:39:46;;;;;;;;;;;;;;;;;;6220553;23;19907;-82
2022/06/18 09:42:13;;;;;;;;;;;;;;;;;;6219796;23;19908;-82
2022/06/18 09:44:53;;;;;;;;;;;;;;;;;;6246835;23;20246;-82
2022/06/18 09:47:23;;;;;;;;;;;;;;;;;;6220299;23;19908;-83
2022/06/18 09:49:48;;;;;;;;;;;;;;;;;;6221535;23;20234;-83
2022/06/18 09:52:24;;;;;;;;;;;;;;;;;;6219715;23;19921;-82
2022/06/18 09:54:56;;;;;;;;;;;;;;;;;;6232347;23;19912;-81
2022/06/18 09:57:23;;;;;;;;;;;;;;;;;;6195014;23;19907;-83
2022/06/18 09:59:50;;;;;;;;;;;;;;;;;;6246719;23;19915;-82
2022/06/18 10:02:27;;;;;;;;;;;;;;;;;;6220103;23;19993;-83
2022/06/18 10:07:39;;;;;;;;;;;;;;;;;;6246286;23;19987;-81
2022/06/18 10:10:05;;;;;;;;;;;;;;;;;;6222596;23;19974;-82
2022/06/18 10:12:35;;;;;;;;;;;;;;;;;;6246958;23;19918;-82
2022/06/18 10:15:01;;;;;;;;;;;;;;;;;;6259425;23;19935;-81
2022/06/18 10:17:32;;;;;;;;;;;;;;;;;;6219726;23;19962;-81
2022/06/18 10:20:16;;;;;;;;;;;;;;;;;;6219637;23;19914;-82
2022/06/18 10:22:42;;;;;;;;;;;;;;;;;;6246250;23;19907;-81
2022/06/18 10:25:27;;;;;;;;;;;;;;;;;;6245775;23;19958;-81
2022/06/18 10:27:52;;;;;;;;;;;;;;;;;;6245771;23;19907;-81
2022/06/18 10:30:36;;;;;;;;;;;;;;;;;;6245998;23;19907;-81
2022/06/18 10:33:05;;;;;;;;;;;;;;;;;;6246835;23;19907;-80
2022/06/18 10:35:46;;;;;;;;;;;;;;;;;;6234740;23;20482;-81
2022/06/18 10:38:27;;;;;;;;;;;;;;;;;;6246985;23;19983;-83
2022/06/18 10:40:58;;;;;;;;;;;;;;;;;;6245950;23;19907;-80
2022/06/18 10:43:29;;;;;;;;;;;;;;;;;;6246174;23;19907;-82
2022/06/18 10:46:01;;;;;;;;;;;;;;;;;;6245749;23;20267;-82
2022/06/18 10:48:28;;;;;;;;;;;;;;;;;;6194485;23;20362;-83
2022/06/18 10:50:54;;;;;;;;;;;;;;;;;;6219544;23;19915;-84
2022/06/18 10:53:20;;;;;;;;;;;;;;;;;;6218729;23;20293;-81
2022/06/18 10:55:55;;;;;;;;;;;;;;;;;;6228863;23;19938;-81
2022/06/18 10:58:21;;;;;;;;;;;;;;;;;;6202306;23;19960;-82
2022/06/18 11:00:54;;;;;;;;;;;;;;;;;;6246257;23;20340;-82
2022/06/18 11:03:20;;;;;;;;;;;;;;;;;;6219377;23;19915;-82
2022/06/18 11:05:45;;;;;;;;;;;;;;;;;;6218883;23;19908;-83
2022/06/18 11:08:29;;;;;;;;;;;;;;;;;;6194807;23;19914;-80
2022/06/18 11:10:56;;;;;;;;;;;;;;;;;;6245947;23;19927;-82
2022/06/18 11:13:36;;;;;;;;;;;;;;;;;;6245562;23;20224;-83
2022/06/18 11:16:03;;;;;;;;;;;;;;;;;;6252766;23;19915;-82
2022/06/18 11:18:28;;;;;;;;;;;;;;;;;;6256683;23;20001;-83
2022/06/18 11:21:00;;;;;;;;;;;;;;;;;;6219131;23;20310;-83
2022/06/18 11:23:26;;;;;;;;;;;;;;;;;;6245646;23;19908;-78
2022/06/18 11:25:52;;;;;;;;;;;;;;;;;;6219083;23;19914;-82
2022/06/18 11:28:21;;;;;;;;;;;;;;;;;;6218947;23;19907;-80
2022/06/18 11:30:47;;;;;;;;;;;;;;;;;;6245466;23;19915;-79
2022/06/18 11:33:28;;;;;;;;;;;;;;;;;;6245832;23;19908;-82
2022/06/18 11:35:53;;;;;;;;;;;;;;;;;;6248513;23;19907;-82
2022/06/18 11:38:32;;;;;;;;;;;;;;;;;;6250371;23;20311;-81
2022/06/18 11:40:59;;;;;;;;;;;;;;;;;;6218781;23;19907;-80
2022/06/18 11:43:28;;;;;;;;;;;;;;;;;;6218996;23;19908;-80
2022/06/18 11:45:54;;;;;;;;;;;;;;;;;;6245473;23;19907;-80
2022/06/18 11:48:25;;;;;;;;;;;;;;;;;;6218837;23;20246;-81
2022/06/18 11:51:13;;;;;;;;;;;;;;;;;;6218748;23;19907;-80
2022/06/18 11:53:54;;;;;;;;;;;;;;;;;;6202802;23;19907;-80
2022/06/18 11:56:26;;;;;;;;;;;;;;;;;;6222975;23;19941;-81
2022/06/18 11:58:53;;;;;;;;;;;;;;;;;;6206291;23;19911;-80
2022/06/18 12:01:28;;;;;;;;;;;;;;;;;;6245388;23;19911;-79
2022/06/18 12:03:58;;;;;;;;;;;;;;;;;;6218974;23;20243;-80
2022/06/18 12:06:32;;;;;;;;;;;;;;;;;;6218497;23;20311;-81
2022/06/18 12:08:57;;;;;;;;;;;;;;;;;;6245312;23;19907;-80
2022/06/18 12:11:29;;;;;;;;;;;;;;;;;;6218473;23;19914;-80
2022/06/18 12:13:59;;;;;;;;;;;;;;;;;;6245161;23;19907;-80
2022/06/18 12:16:40;;;;;;;;;;;;;;;;;;6247886;23;19950;-80
2022/06/18 12:19:14;;;;;;;;;;;;;;;;;;6255363;22;19912;-82
2022/06/18 12:21:49;;;;;;;;;;;;;;;;;;6245509;23;19907;-81
2022/06/18 12:24:32;;;;;;;;;;;;;;;;;;6244928;23;19908;-83
2022/06/18 12:27:01;;;;;;;;;;;;;;;;;;6245606;23;19958;-81
2022/06/18 12:29:52;;;;;;;;;;;;;;;;;;6244698;23;19990;-81
2022/06/18 12:32:36;;;;;;;;;;;;;;;;;;6209309;23;19908;-81
2022/06/18 12:35:04;;;;;;;;;;;;;;;;;;6244698;23;19903;-81
2022/06/18 12:37:32;;;;;;;;;;;;;;;;;;6249610;23;19907;-82
2022/06/18 12:40:03;;;;;;;;;;;;;;;;;;6256196;23;19912;-81
2022/06/18 12:42:47;;;;;;;;;;;;;;;;;;6244768;23;19911;-82
2022/06/18 12:45:31;;;;;;;;;;;;;;;;;;6244296;23;19908;-82
2022/06/18 12:47:56;;;;;;;;;;;;;;;;;;6245222;23;19931;-82
2022/06/18 12:50:35;;;;;;;;;;;;;;;;;;6217771;23;20367;-82
2022/06/18 12:53:06;;;;;;;;;;;;;;;;;;6219612;23;19907;-82
2022/06/18 12:55:44;;;;;;;;;;;;;;;;;;6246921;23;20002;-81
2022/06/18 12:58:28;;;;;;;;;;;;;;;;;;6226926;23;20341;-80
2022/06/18 13:00:53;;;;;;;;;;;;;;;;;;6254161;23;19946;-81
2022/06/18 13:03:19;;;;;;;;;;;;;;;;;;6246933;23;19907;-81
2022/06/18 13:06:10;;;;;;;;;;;;;;;;;;6248267;23;19914;-82
2022/06/18 13:08:39;;;;;;;;;;;;;;;;;;6242626;23;19914;-82
2022/06/18 13:11:08;;;;;;;;;;;;;;;;;;6247167;23;19946;-82
2022/06/18 13:13:54;;;;;;;;;;;;;;;;;;6220183;23;19973;-82
2022/06/18 13:16:24;;;;;;;;;;;;;;;;;;6229621;23;19918;-81
2022/06/18 13:18:57;;;;;;;;;;;;;;;;;;6232060;22;19903;-81
2022/06/18 13:21:23;;;;;;;;;;;;;;;;;;6220258;23;19942;-82
2022/06/18 13:29:25;;;;;;;;;;;;;;;;;;6222176;23;20342;-83
2022/06/18 13:32:07;;;;;;;;;;;;;;;;;;6217556;23;19907;-82
2022/06/18 13:34:48;;;;;;;;;;;;;;;;;;6218302;23;19970;-81
2022/06/18 13:37:34;;;;;;;;;;;;;;;;;;6192747;23;20040;-82
2022/06/18 13:40:03;;;;;;;;;;;;;;;;;;6201414;23;20183;-81
2022/06/18 13:42:31;;;;;;;;;;;;;;;;;;6221729;23;19911;-81
2022/06/18 13:45:12;;;;;;;;;;;;;;;;;;6244908;23;19912;-82
2022/06/18 13:47:40;;;;;;;;;;;;;;;;;;6245066;23;19913;-81
2022/06/18 13:50:16;;;;;;;;;;;;;;;;;;6218222;23;20327;-80
2022/06/18 13:52:45;;;;;;;;;;;;;;;;;;6218404;23;19911;-83
2022/06/18 13:55:10;;;;;;;;;;;;;;;;;;6244976;23;19904;-82
2022/06/18 13:57:45;;;;;;;;;;;;;;;;;;6218167;23;20035;-81
2022/06/18 14:00:21;;;;;;;;;;;;;;;;;;6227798;23;20319;-84
2022/06/18 14:03:13;;;;;;;;;;;;;;;;;;6247146;23;19908;-83
2022/06/18 14:05:38;;;;;;;;;;;;;;;;;;6239950;23;19912;-80
2022/06/18 14:08:04;;;;;;;;;;;;;;;;;;6244797;23;19911;-82
2022/06/18 14:10:33;;;;;;;;;;;;;;;;;;6218105;23;19967;-82
2022/06/18 14:12:59;;;;;;;;;;;;;;;;;;6244781;23;19907;-80
2022/06/18 14:15:25;;;;;;;;;;;;;;;;;;6217602;23;19907;-81
2022/06/18 14:17:51;;;;;;;;;;;;;;;;;;6039841;23;3627715;-81
2022/06/18 14:20:29;;;;;;;;;;;;;;;;;;6227668;22;19922;-81
2022/06/18 14:22:57;;;;;;;;;;;;;;;;;;6225772;23;20289;-80
2022/06/18 14:25:22;;;;;;;;;;;;;;;;;;6246465;23;19962;-81
2022/06/18 14:27:48;;;;;;;;;;;;;;;;;;6246141;23;20293;-81
2022/06/18 14:30:19;;;;;;;;;;;;;;;;;;6218955;23;20014;-81
2022/06/18 14:33:03;;;;;;;;;;;;;;;;;;6246011;23;19911;-80
2022/06/18 14:35:43;;;;;;;;;;;;;;;;;;6245977;23;19935;-81
2022/06/18 14:38:08;;;;;;;;;;;;;;;;;;6219894;23;19957;-80
2022/06/18 14:41:34;;;;;;;;;;;;;;;;;;6251564;23;19915;-82
2022/06/18 14:43:39;;;;;;;;;;;;;;;;;;6224229;23;19986;-82
2022/06/18 14:46:14;;;;;;;;;;;;;;;;;;6219366;23;20330;-81
2022/06/18 14:48:40;;;;;;;;;;;;;;;;;;6219217;23;19908;-81
2022/06/18 14:51:06;;;;;;;;;;;;;;;;;;6245870;23;20281;-81
2022/06/18 14:53:42;;;;;;;;;;;;;;;;;;6246406;23;19908;-81
2022/06/18 14:56:18;;;;;;;;;;;;;;;;;;6219736;23;19908;-81
2022/06/18 14:59:13;;;;;;;;;;;;;;;;;;6246472;23;19968;-81
2022/06/18 15:01:41;;;;;;;;;;;;;;;;;;6175464;23;19913;-81
2022/06/18 15:04:16;;;;;;;;;;;;;;;;;;6246275;23;19908;-80
2022/06/18 15:06:41;;;;;;;;;;;;;;;;;;6246062;23;19907;-83
2022/06/18 15:09:06;;;;;;;;;;;;;;;;;;6219120;23;19965;-82
2022/06/18 15:11:37;;;;;;;;;;;;;;;;;;6218806;23;19965;-81
2022/06/18 15:14:02;;;;;;;;;;;;;;;;;;6218122;23;20250;-82
2022/06/18 15:16:35;;;;;;;;;;;;;;;;;;6245590;23;19918;-83
2022/06/18 15:26:46;;;;;;;;;;;;;;;;;;6220500;23;20366;-82
2022/06/18 15:29:15;;;;;;;;;;;;;;;;;;6219167;23;19908;-81
2022/06/18 15:31:42;;;;;;;;;;;;;;;;;;6246343;23;19994;-82
2022/06/18 15:34:24;;;;;;;;;;;;;;;;;;6218532;23;20361;-81
2022/06/18 15:37:08;;;;;;;;;;;;;;;;;;6218714;23;20586;-82
2022/06/18 15:39:36;;;;;;;;;;;;;;;;;;6245400;23;19907;-81
2022/06/18 15:42:01;;;;;;;;;;;;;;;;;;6229932;23;20264;-82
2022/06/18 15:44:28;;;;;;;;;;;;;;;;;;6220492;23;19946;-80
2022/06/18 15:46:54;;;;;;;;;;;;;;;;;;6220816;23;20347;-82
2022/06/18 15:49:24;;;;;;;;;;;;;;;;;;6219615;23;20172;-80
2022/06/18 15:51:50;;;;;;;;;;;;;;;;;;6218907;23;19976;-81
2022/06/18 15:54:18;;;;;;;;;;;;;;;;;;6218657;23;20238;-81
2022/06/18 15:56:44;;;;;;;;;;;;;;;;;;6218617;23;19915;-82
2022/06/18 15:59:11;;;;;;;;;;;;;;;;;;6218447;23;19908;-81
2022/06/18 16:01:37;;;;;;;;;;;;;;;;;;6226663;23;19934;-81
2022/06/18 16:04:02;;;;;;;;;;;;;;;;;;6250915;23;19909;-81
2022/06/18 16:06:28;;;;;;;;;;;;;;;;;;6246352;23;19911;-80
2022/06/18 16:09:02;;;;;;;;;;;;;;;;;;6219538;23;19907;-80
2022/06/18 16:11:29;;;;;;;;;;;;;;;;;;6218096;23;19911;-80
2022/06/18 16:13:55;;;;;;;;;;;;;;;;;;6245296;23;20326;-81
2022/06/18 16:16:32;;;;;;;;;;;;;;;;;;6218198;23;19911;-80
2022/06/18 16:18:58;;;;;;;;;;;;;;;;;;6218552;23;19908;-80
2022/06/18 16:21:24;;;;;;;;;;;;;;;;;;6224038;23;19892;-81
2022/06/18 16:23:49;;;;;;;;;;;;;;;;;;6225513;23;20393;-81
2022/06/18 16:26:15;;;;;;;;;;;;;;;;;;6218547;23;20295;-80
2022/06/18 16:28:40;;;;;;;;;;;;;;;;;;6219278;23;19907;-81
2022/06/18 16:31:06;;;;;;;;;;;;;;;;;;6218431;23;19957;-81
2022/06/18 16:33:35;;;;;;;;;;;;;;;;;;6218182;23;19907;-81
2022/06/18 16:36:00;;;;;;;;;;;;;;;;;;6245372;23;19915;-81
2022/06/18 16:38:31;;;;;;;;;;;;;;;;;;6245000;23;19976;-82
2022/06/18 16:41:07;;;;;;;;;;;;;;;;;;6244614;23;19907;-82
2022/06/18 16:43:32;;;;;;;;;;;;;;;;;;6258896;23;19951;-81
2022/06/18 16:45:57;;;;;;;;;;;;;;;;;;6246648;23;19907;-81
2022/06/18 16:48:26;;;;;;;;;;;;;;;;;;6245982;23;19907;-79
2022/06/18 16:50:52;;;;;;;;;;;;;;;;;;6245444;23;19907;-81
2022/06/18 16:53:24;;;;;;;;;;;;;;;;;;6193468;23;19938;-80
2022/06/18 16:55:51;;;;;;;;;;;;;;;;;;6244999;23;19907;-82
2022/06/18 16:58:16;;;;;;;;;;;;;;;;;;6244737;23;19914;-81
2022/06/18 17:00:44;;;;;;;;;;;;;;;;;;6244886;23;19931;-82
2022/06/18 17:03:10;;;;;;;;;;;;;;;;;;6226914;23;19911;-82
2022/06/18 17:05:38;;;;;;;;;;;;;;;;;;6245890;23;20037;-81